EWG8ZG EDDB-EDDK
Flight info
| Callsign | EWG8ZG |
|---|---|
| Flight time | 0h 58m |
| Altitude | 32000 |
| Route | KISUC1Q KISUC Z20 MAG Z92 ABGUS DCT TOLTA DCT PODER Z189 RUNER/N0368F240 T858 KOPAG KOPAG1B |
| Aircraft | A320/M-SDE3FGHIRWY/LB1 |
Departure
| Time | 2026-05-05 16:57 |
|---|---|
| Airport | Berlin Brandenburg Airport (EDDB) |
Arrival
| Time | 2026-05-05 17:55 |
|---|---|
| Airport | Cologne Bonn Airport (EDDK) |
| Time | Latitude | Longitude | Altitude | Speed | Heading |
|---|---|---|---|---|---|
| 2026-05-05 16:17 | 52.36124 | 13.51297 | 155 ft | 0 kts | 339° |
| 2026-05-05 16:44 | 52.36103 | 13.51310 | 155 ft | 4 kts | 339° |
| 2026-05-05 16:44 | 52.36081 | 13.51324 | 155 ft | 2 kts | 339° |
| 2026-05-05 16:44 | 52.36060 | 13.51342 | 155 ft | 4 kts | 312° |
| 2026-05-05 16:44 | 52.36050 | 13.51376 | 155 ft | 4 kts | 259° |
| 2026-05-05 16:45 | 52.36051 | 13.51388 | 155 ft | 0 kts | 249° |
| 2026-05-05 16:48 | 52.36048 | 13.51376 | 155 ft | 3 kts | 249° |
| 2026-05-05 16:49 | 52.36038 | 13.51330 | 155 ft | 6 kts | 249° |
| 2026-05-05 16:49 | 52.36023 | 13.51267 | 155 ft | 5 kts | 249° |
| 2026-05-05 16:49 | 52.36010 | 13.51213 | 155 ft | 5 kts | 249° |
| 2026-05-05 16:49 | 52.35992 | 13.51135 | 155 ft | 10 kts | 249° |
| 2026-05-05 16:50 | 52.35963 | 13.51018 | 155 ft | 11 kts | 248° |
| 2026-05-05 16:50 | 52.35939 | 13.50916 | 155 ft | 9 kts | 249° |
| 2026-05-05 16:50 | 52.35917 | 13.50825 | 154 ft | 9 kts | 249° |
| 2026-05-05 16:50 | 52.35894 | 13.50730 | 154 ft | 9 kts | 249° |
| 2026-05-05 16:51 | 52.35872 | 13.50653 | 154 ft | 7 kts | 229° |
| 2026-05-05 16:51 | 52.35827 | 13.50635 | 154 ft | 7 kts | 168° |
| 2026-05-05 16:51 | 52.35777 | 13.50622 | 154 ft | 9 kts | 217° |
| 2026-05-05 16:51 | 52.35756 | 13.50553 | 154 ft | 12 kts | 250° |
| 2026-05-05 16:52 | 52.35727 | 13.50428 | 154 ft | 12 kts | 249° |
| 2026-05-05 16:52 | 52.35695 | 13.50296 | 154 ft | 14 kts | 249° |
| 2026-05-05 16:52 | 52.35658 | 13.50142 | 154 ft | 15 kts | 249° |
| 2026-05-05 16:52 | 52.35618 | 13.49971 | 154 ft | 18 kts | 248° |
| 2026-05-05 16:53 | 52.35571 | 13.49775 | 154 ft | 19 kts | 249° |
| 2026-05-05 16:53 | 52.35522 | 13.49567 | 154 ft | 20 kts | 249° |
| 2026-05-05 16:53 | 52.35470 | 13.49346 | 154 ft | 21 kts | 249° |
| 2026-05-05 16:53 | 52.35418 | 13.49131 | 154 ft | 19 kts | 249° |
| 2026-05-05 16:54 | 52.35373 | 13.48937 | 154 ft | 17 kts | 249° |
| 2026-05-05 16:54 | 52.35332 | 13.48768 | 154 ft | 15 kts | 249° |
| 2026-05-05 16:54 | 52.35297 | 13.48620 | 154 ft | 13 kts | 249° |
| 2026-05-05 16:54 | 52.35262 | 13.48492 | 154 ft | 11 kts | 230° |
| 2026-05-05 16:55 | 52.35193 | 13.48496 | 154 ft | 10 kts | 159° |
| 2026-05-05 16:55 | 52.35133 | 13.48534 | 154 ft | 8 kts | 159° |
| 2026-05-05 16:55 | 52.35102 | 13.48602 | 154 ft | 9 kts | 102° |
| 2026-05-05 16:55 | 52.35090 | 13.48736 | 154 ft | 15 kts | 99° |
| 2026-05-05 16:56 | 52.35075 | 13.48915 | 154 ft | 15 kts | 95° |
| 2026-05-05 16:56 | 52.35059 | 13.49022 | 154 ft | 6 kts | 78° |
| 2026-05-05 16:56 | 52.35075 | 13.49087 | 154 ft | 8 kts | 68° |
| 2026-05-05 16:56 | 52.35156 | 13.49425 | 154 ft | 68 kts | 69° |
| 2026-05-05 16:57 | 52.35409 | 13.50489 | 155 ft | 130 kts | 69° |
| 2026-05-05 16:57 | 52.35789 | 13.52081 | 377 ft | 157 kts | 68° |
| 2026-05-05 16:57 | 52.36160 | 13.53757 | 1099 ft | 162 kts | 76° |
| 2026-05-05 16:57 | 52.35899 | 13.55651 | 1515 ft | 191 kts | 127° |
| 2026-05-05 16:58 | 52.34715 | 13.56747 | 2043 ft | 208 kts | 174° |
| 2026-05-05 16:58 | 52.33289 | 13.56292 | 2746 ft | 212 kts | 202° |
| 2026-05-05 16:58 | 52.31973 | 13.55096 | 3292 ft | 226 kts | 218° |
| 2026-05-05 16:58 | 52.30685 | 13.53413 | 3700 ft | 249 kts | 219° |
| 2026-05-05 16:59 | 52.29275 | 13.51593 | 4348 ft | 265 kts | 218° |
| 2026-05-05 16:59 | 52.27833 | 13.49687 | 5317 ft | 268 kts | 225° |
| 2026-05-05 16:59 | 52.26746 | 13.47228 | 6286 ft | 269 kts | 246° |
| 2026-05-05 16:59 | 52.26289 | 13.44272 | 7202 ft | 271 kts | 267° |
| 2026-05-05 17:00 | 52.26277 | 13.41170 | 8101 ft | 275 kts | 270° |
| 2026-05-05 17:00 | 52.26283 | 13.38040 | 9039 ft | 277 kts | 270° |
| 2026-05-05 17:00 | 52.26289 | 13.34876 | 9945 ft | 280 kts | 269° |
| 2026-05-05 17:00 | 52.26281 | 13.31674 | 10663 ft | 288 kts | 266° |
| 2026-05-05 17:01 | 52.25981 | 13.28313 | 10936 ft | 311 kts | 259° |
| 2026-05-05 17:01 | 52.25568 | 13.24758 | 11424 ft | 324 kts | 258° |
| 2026-05-05 17:01 | 52.25120 | 13.21124 | 12162 ft | 329 kts | 258° |
| 2026-05-05 17:01 | 52.24661 | 13.17449 | 12944 ft | 332 kts | 257° |
| 2026-05-05 17:02 | 52.24200 | 13.13736 | 13717 ft | 336 kts | 257° |
| 2026-05-05 17:02 | 52.23736 | 13.09983 | 14416 ft | 339 kts | 258° |
| 2026-05-05 17:02 | 52.23270 | 13.06203 | 15118 ft | 341 kts | 258° |
| 2026-05-05 17:02 | 52.22804 | 13.02392 | 15801 ft | 344 kts | 258° |
| 2026-05-05 17:03 | 52.22335 | 12.98554 | 16493 ft | 346 kts | 258° |
| 2026-05-05 17:03 | 52.21864 | 12.94685 | 17177 ft | 349 kts | 258° |
| 2026-05-05 17:03 | 52.21389 | 12.90793 | 17864 ft | 352 kts | 258° |
| 2026-05-05 17:03 | 52.20906 | 12.86858 | 18451 ft | 355 kts | 258° |
| 2026-05-05 17:04 | 52.20415 | 12.82893 | 19027 ft | 358 kts | 257° |
| 2026-05-05 17:04 | 52.19919 | 12.78901 | 19606 ft | 361 kts | 257° |
| 2026-05-05 17:04 | 52.19417 | 12.74875 | 20190 ft | 364 kts | 257° |
| 2026-05-05 17:04 | 52.18910 | 12.70823 | 20773 ft | 367 kts | 257° |
| 2026-05-05 17:05 | 52.18399 | 12.66735 | 21359 ft | 369 kts | 257° |
| 2026-05-05 17:05 | 52.17883 | 12.62619 | 21928 ft | 372 kts | 257° |
| 2026-05-05 17:05 | 52.17362 | 12.58474 | 22509 ft | 375 kts | 257° |
| 2026-05-05 17:05 | 52.16836 | 12.54302 | 23074 ft | 378 kts | 256° |
| 2026-05-05 17:06 | 52.16305 | 12.50096 | 23594 ft | 380 kts | 256° |
| 2026-05-05 17:06 | 52.15770 | 12.45867 | 24053 ft | 382 kts | 256° |
| 2026-05-05 17:06 | 52.15229 | 12.41620 | 24524 ft | 384 kts | 256° |
| 2026-05-05 17:06 | 52.14686 | 12.37362 | 24998 ft | 385 kts | 256° |
| 2026-05-05 17:07 | 52.14138 | 12.33080 | 25437 ft | 387 kts | 256° |
| 2026-05-05 17:07 | 52.13585 | 12.28785 | 25879 ft | 388 kts | 256° |
| 2026-05-05 17:07 | 52.13038 | 12.24539 | 26312 ft | 390 kts | 256° |
| 2026-05-05 17:07 | 52.12473 | 12.20151 | 26720 ft | 392 kts | 256° |
| 2026-05-05 17:08 | 52.11913 | 12.15803 | 27107 ft | 394 kts | 256° |
| 2026-05-05 17:08 | 52.11348 | 12.11438 | 27517 ft | 395 kts | 256° |
| 2026-05-05 17:08 | 52.10784 | 12.07110 | 27807 ft | 396 kts | 256° |
| 2026-05-05 17:08 | 52.10209 | 12.02735 | 27847 ft | 395 kts | 256° |
| 2026-05-05 17:09 | 52.09633 | 11.98363 | 27851 ft | 395 kts | 256° |
| 2026-05-05 17:09 | 52.09058 | 11.93997 | 27850 ft | 395 kts | 256° |
| 2026-05-05 17:09 | 52.08483 | 11.89631 | 27859 ft | 396 kts | 256° |
| 2026-05-05 17:09 | 52.07905 | 11.85242 | 28219 ft | 398 kts | 256° |
| 2026-05-05 17:10 | 52.07323 | 11.80832 | 28631 ft | 399 kts | 256° |
| 2026-05-05 17:10 | 52.06737 | 11.76415 | 29016 ft | 401 kts | 256° |
| 2026-05-05 17:10 | 52.06146 | 11.71979 | 29393 ft | 402 kts | 256° |
| 2026-05-05 17:10 | 52.05550 | 11.67538 | 29756 ft | 404 kts | 256° |
| 2026-05-05 17:11 | 52.04946 | 11.63070 | 30080 ft | 405 kts | 255° |
| 2026-05-05 17:11 | 52.04339 | 11.58597 | 30362 ft | 406 kts | 255° |
| 2026-05-05 17:11 | 52.03730 | 11.54109 | 30637 ft | 408 kts | 255° |
| 2026-05-05 17:11 | 52.03119 | 11.49604 | 30894 ft | 409 kts | 255° |
| 2026-05-05 17:12 | 52.02506 | 11.45083 | 31156 ft | 411 kts | 255° |
| 2026-05-05 17:12 | 52.01889 | 11.40552 | 31427 ft | 411 kts | 255° |
| 2026-05-05 17:12 | 52.01269 | 11.36025 | 31762 ft | 410 kts | 255° |
| 2026-05-05 17:12 | 52.00651 | 11.31517 | 32146 ft | 409 kts | 255° |
| 2026-05-05 17:13 | 52.00033 | 11.27023 | 32504 ft | 407 kts | 255° |
| 2026-05-05 17:13 | 51.99414 | 11.22540 | 32871 ft | 406 kts | 255° |
| 2026-05-05 17:13 | 51.98795 | 11.18077 | 33210 ft | 405 kts | 254° |
| 2026-05-05 17:13 | 51.98172 | 11.13610 | 33457 ft | 407 kts | 254° |
| 2026-05-05 17:14 | 51.97546 | 11.09135 | 33756 ft | 407 kts | 254° |
| 2026-05-05 17:14 | 51.96923 | 11.04670 | 33849 ft | 403 kts | 253° |
| 2026-05-05 17:14 | 51.95699 | 10.95933 | 33860 ft | 394 kts | 253° |
| 2026-05-05 17:15 | 51.94477 | 10.87283 | 33860 ft | 393 kts | 253° |
| 2026-05-05 17:15 | 51.93242 | 10.78652 | 33876 ft | 393 kts | 253° |
| 2026-05-05 17:16 | 51.92011 | 10.70048 | 33861 ft | 392 kts | 253° |
| 2026-05-05 17:16 | 51.90789 | 10.61511 | 33858 ft | 391 kts | 253° |
| 2026-05-05 17:17 | 51.89541 | 10.52933 | 33854 ft | 391 kts | 253° |
| 2026-05-05 17:17 | 51.88295 | 10.44367 | 33848 ft | 391 kts | 253° |
| 2026-05-05 17:18 | 51.87049 | 10.35801 | 33843 ft | 391 kts | 253° |
| 2026-05-05 17:18 | 51.85786 | 10.27244 | 33840 ft | 391 kts | 252° |
| 2026-05-05 17:19 | 51.84514 | 10.18682 | 33847 ft | 392 kts | 252° |
| 2026-05-05 17:19 | 51.83240 | 10.10109 | 33814 ft | 393 kts | 252° |
| 2026-05-05 17:20 | 51.81956 | 10.01511 | 33813 ft | 394 kts | 252° |
| 2026-05-05 17:20 | 51.80665 | 9.92887 | 33817 ft | 395 kts | 252° |
| 2026-05-05 17:21 | 51.79374 | 9.84303 | 33821 ft | 396 kts | 252° |
| 2026-05-05 17:22 | 51.77409 | 9.71338 | 33841 ft | 397 kts | 252° |
| 2026-05-05 17:22 | 51.76081 | 9.62682 | 33829 ft | 398 kts | 252° |
| 2026-05-05 17:23 | 51.74739 | 9.54016 | 33820 ft | 398 kts | 252° |
| 2026-05-05 17:23 | 51.73400 | 9.45345 | 33815 ft | 399 kts | 252° |
| 2026-05-05 17:24 | 51.72059 | 9.36668 | 33817 ft | 399 kts | 252° |
| 2026-05-05 17:24 | 51.70702 | 9.27994 | 33809 ft | 399 kts | 252° |
| 2026-05-05 17:25 | 51.69338 | 9.19328 | 33810 ft | 399 kts | 251° |
| 2026-05-05 17:25 | 51.67962 | 9.10661 | 33806 ft | 400 kts | 251° |
| 2026-05-05 17:26 | 51.66574 | 9.01969 | 33805 ft | 402 kts | 251° |
| 2026-05-05 17:26 | 51.65190 | 8.93236 | 33805 ft | 403 kts | 251° |
| 2026-05-05 17:27 | 51.63787 | 8.84491 | 33813 ft | 403 kts | 251° |
| 2026-05-05 17:27 | 51.62249 | 8.75831 | 33820 ft | 400 kts | 243° |
| 2026-05-05 17:28 | 51.59313 | 8.68411 | 33822 ft | 392 kts | 224° |
| 2026-05-05 17:28 | 51.55019 | 8.63178 | 33813 ft | 388 kts | 208° |
| 2026-05-05 17:29 | 51.50293 | 8.58959 | 33815 ft | 389 kts | 208° |
| 2026-05-05 17:29 | 51.45560 | 8.54737 | 33806 ft | 390 kts | 207° |
| 2026-05-05 17:30 | 51.40819 | 8.50490 | 33808 ft | 392 kts | 207° |
| 2026-05-05 17:30 | 51.36043 | 8.46222 | 33815 ft | 394 kts | 207° |
| 2026-05-05 17:31 | 51.31270 | 8.41937 | 33281 ft | 394 kts | 210° |
| 2026-05-05 17:31 | 51.29059 | 8.39355 | 32673 ft | 394 kts | 218° |
| 2026-05-05 17:31 | 51.27112 | 8.36274 | 32072 ft | 394 kts | 226° |
| 2026-05-05 17:31 | 51.25467 | 8.32757 | 31476 ft | 397 kts | 234° |
| 2026-05-05 17:32 | 51.24082 | 8.28940 | 30900 ft | 397 kts | 237° |
| 2026-05-05 17:32 | 51.22710 | 8.25133 | 30369 ft | 395 kts | 236° |
| 2026-05-05 17:32 | 51.21333 | 8.21352 | 29849 ft | 393 kts | 236° |
| 2026-05-05 17:32 | 51.19960 | 8.17597 | 29270 ft | 391 kts | 236° |
| 2026-05-05 17:33 | 51.18594 | 8.13872 | 28711 ft | 388 kts | 236° |
| 2026-05-05 17:33 | 51.17238 | 8.10183 | 28185 ft | 385 kts | 236° |
| 2026-05-05 17:33 | 51.15891 | 8.06515 | 27655 ft | 382 kts | 236° |
| 2026-05-05 17:33 | 51.14552 | 8.02873 | 27150 ft | 380 kts | 236° |
| 2026-05-05 17:34 | 51.13219 | 7.99252 | 26649 ft | 378 kts | 236° |
| 2026-05-05 17:34 | 51.11895 | 7.95656 | 26162 ft | 375 kts | 236° |
| 2026-05-05 17:34 | 51.10579 | 7.92081 | 25694 ft | 373 kts | 236° |
| 2026-05-05 17:34 | 51.09272 | 7.88539 | 25223 ft | 371 kts | 236° |
| 2026-05-05 17:35 | 51.07968 | 7.85017 | 24748 ft | 369 kts | 236° |
| 2026-05-05 17:35 | 51.06670 | 7.81512 | 24281 ft | 367 kts | 237° |
| 2026-05-05 17:35 | 51.05832 | 7.79179 | 23937 ft | 367 kts | 238° |
| 2026-05-05 17:35 | 51.04631 | 7.75594 | 23451 ft | 367 kts | 240° |
| 2026-05-05 17:36 | 51.03480 | 7.71982 | 22934 ft | 365 kts | 240° |
| 2026-05-05 17:36 | 51.02353 | 7.68382 | 22430 ft | 363 kts | 241° |
| 2026-05-05 17:36 | 51.01232 | 7.64809 | 21946 ft | 360 kts | 240° |
| 2026-05-05 17:36 | 51.00110 | 7.61268 | 21478 ft | 358 kts | 240° |
| 2026-05-05 17:37 | 50.98969 | 7.57716 | 20997 ft | 355 kts | 240° |
| 2026-05-05 17:37 | 50.97844 | 7.54243 | 20568 ft | 353 kts | 240° |
| 2026-05-05 17:37 | 50.96720 | 7.50797 | 20127 ft | 350 kts | 239° |
| 2026-05-05 17:37 | 50.95342 | 7.47671 | 19718 ft | 344 kts | 225° |
| 2026-05-05 17:38 | 50.93545 | 7.45226 | 19308 ft | 339 kts | 211° |
| 2026-05-05 17:38 | 50.91451 | 7.43574 | 18888 ft | 335 kts | 198° |
| 2026-05-05 17:38 | 50.89199 | 7.42777 | 18475 ft | 332 kts | 184° |
| 2026-05-05 17:38 | 50.86897 | 7.42601 | 18054 ft | 330 kts | 182° |
| 2026-05-05 17:39 | 50.84612 | 7.42740 | 17599 ft | 328 kts | 171° |
| 2026-05-05 17:39 | 50.82419 | 7.43677 | 17157 ft | 327 kts | 158° |
| 2026-05-05 17:39 | 50.80426 | 7.45385 | 16718 ft | 326 kts | 145° |
| 2026-05-05 17:39 | 50.78709 | 7.47703 | 16286 ft | 325 kts | 138° |
| 2026-05-05 17:40 | 50.77065 | 7.50097 | 15862 ft | 324 kts | 138° |
| 2026-05-05 17:40 | 50.75391 | 7.52516 | 15458 ft | 322 kts | 138° |
| 2026-05-05 17:40 | 50.73741 | 7.54892 | 15059 ft | 320 kts | 139° |
| 2026-05-05 17:40 | 50.72097 | 7.57255 | 14682 ft | 319 kts | 139° |
| 2026-05-05 17:41 | 50.70484 | 7.59571 | 14310 ft | 317 kts | 139° |
| 2026-05-05 17:41 | 50.68854 | 7.61905 | 13937 ft | 316 kts | 139° |
| 2026-05-05 17:41 | 50.67234 | 7.64228 | 13554 ft | 314 kts | 138° |
| 2026-05-05 17:41 | 50.65626 | 7.66544 | 13128 ft | 313 kts | 138° |
| 2026-05-05 17:42 | 50.64023 | 7.68847 | 12719 ft | 311 kts | 139° |
| 2026-05-05 17:42 | 50.62411 | 7.71162 | 12300 ft | 309 kts | 139° |
| 2026-05-05 17:42 | 50.60826 | 7.73436 | 11902 ft | 307 kts | 139° |
| 2026-05-05 17:42 | 50.59249 | 7.75689 | 11515 ft | 305 kts | 139° |
| 2026-05-05 17:43 | 50.57681 | 7.77926 | 11107 ft | 304 kts | 139° |
| 2026-05-05 17:43 | 50.56124 | 7.80154 | 10710 ft | 302 kts | 139° |
| 2026-05-05 17:43 | 50.54577 | 7.82338 | 10511 ft | 293 kts | 142° |
| 2026-05-05 17:43 | 50.52821 | 7.83711 | 10379 ft | 274 kts | 169° |
| 2026-05-05 17:44 | 50.51013 | 7.83654 | 10259 ft | 252 kts | 198° |
| 2026-05-05 17:44 | 50.49582 | 7.82305 | 10066 ft | 235 kts | 227° |
| 2026-05-05 17:44 | 50.48578 | 7.80344 | 9750 ft | 227 kts | 227° |
| 2026-05-05 17:44 | 50.47488 | 7.78546 | 9421 ft | 226 kts | 224° |
| 2026-05-05 17:45 | 50.46563 | 7.76577 | 9150 ft | 226 kts | 248° |
| 2026-05-05 17:45 | 50.46387 | 7.74160 | 8845 ft | 227 kts | 279° |
| 2026-05-05 17:45 | 50.47061 | 7.71938 | 8528 ft | 230 kts | 311° |
| 2026-05-05 17:45 | 50.48227 | 7.70219 | 8224 ft | 230 kts | 316° |
| 2026-05-05 17:46 | 50.49399 | 7.68551 | 7929 ft | 231 kts | 316° |
| 2026-05-05 17:46 | 50.50602 | 7.66839 | 7675 ft | 229 kts | 315° |
| 2026-05-05 17:46 | 50.51764 | 7.65186 | 7424 ft | 228 kts | 316° |
| 2026-05-05 17:46 | 50.52932 | 7.63517 | 7150 ft | 226 kts | 316° |
| 2026-05-05 17:47 | 50.54131 | 7.61800 | 6533 ft | 240 kts | 316° |
| 2026-05-05 17:47 | 50.55373 | 7.60018 | 6225 ft | 242 kts | 316° |
| 2026-05-05 17:47 | 50.56619 | 7.58237 | 5995 ft | 241 kts | 316° |
| 2026-05-05 17:47 | 50.57863 | 7.56459 | 5623 ft | 241 kts | 316° |
| 2026-05-05 17:48 | 50.59103 | 7.54686 | 5266 ft | 240 kts | 316° |
| 2026-05-05 17:48 | 50.60335 | 7.52921 | 4940 ft | 239 kts | 315° |
| 2026-05-05 17:48 | 50.61558 | 7.51167 | 4613 ft | 237 kts | 315° |
| 2026-05-05 17:48 | 50.62772 | 7.49422 | 4266 ft | 236 kts | 315° |
| 2026-05-05 17:49 | 50.63978 | 7.47688 | 3943 ft | 234 kts | 316° |
| 2026-05-05 17:49 | 50.65181 | 7.45955 | 3579 ft | 235 kts | 318° |
| 2026-05-05 17:49 | 50.66385 | 7.44216 | 3270 ft | 233 kts | 318° |
| 2026-05-05 17:49 | 50.67548 | 7.42537 | 3149 ft | 221 kts | 319° |
| 2026-05-05 17:50 | 50.68652 | 7.40943 | 3054 ft | 210 kts | 319° |
| 2026-05-05 17:50 | 50.69708 | 7.39413 | 3018 ft | 204 kts | 319° |
| 2026-05-05 17:50 | 50.70748 | 7.37906 | 3000 ft | 202 kts | 319° |
| 2026-05-05 17:50 | 50.71781 | 7.36411 | 2992 ft | 202 kts | 319° |
| 2026-05-05 17:51 | 50.72815 | 7.34917 | 2996 ft | 199 kts | 318° |
| 2026-05-05 17:51 | 50.73798 | 7.33488 | 2992 ft | 188 kts | 319° |
| 2026-05-05 17:51 | 50.74752 | 7.32097 | 3001 ft | 185 kts | 319° |
| 2026-05-05 17:51 | 50.75697 | 7.30732 | 2905 ft | 183 kts | 320° |
| 2026-05-05 17:52 | 50.76632 | 7.29388 | 2703 ft | 181 kts | 320° |
| 2026-05-05 17:52 | 50.77526 | 7.28099 | 2493 ft | 170 kts | 320° |
| 2026-05-05 17:52 | 50.78395 | 7.26850 | 2267 ft | 167 kts | 320° |
| 2026-05-05 17:52 | 50.79220 | 7.25660 | 2041 ft | 153 kts | 320° |
| 2026-05-05 17:53 | 50.79983 | 7.24560 | 1847 ft | 145 kts | 320° |
| 2026-05-05 17:53 | 50.80720 | 7.23497 | 1658 ft | 142 kts | 320° |
| 2026-05-05 17:53 | 50.81440 | 7.22459 | 1464 ft | 139 kts | 320° |
| 2026-05-05 17:53 | 50.82147 | 7.21438 | 1257 ft | 137 kts | 320° |
| 2026-05-05 17:54 | 50.82849 | 7.20425 | 1076 ft | 135 kts | 318° |
| 2026-05-05 17:54 | 50.83534 | 7.19436 | 884 ft | 132 kts | 318° |
| 2026-05-05 17:54 | 50.84208 | 7.18463 | 702 ft | 130 kts | 317° |
| 2026-05-05 17:54 | 50.84871 | 7.17492 | 517 ft | 129 kts | 318° |
| 2026-05-05 17:55 | 50.85536 | 7.16538 | 350 ft | 129 kts | 318° |
| 2026-05-05 17:55 | 50.86137 | 7.15676 | 293 ft | 98 kts | 317° |
| 2026-05-05 17:55 | 50.86521 | 7.15119 | 279 ft | 57 kts | 317° |
| 2026-05-05 17:55 | 50.86770 | 7.14758 | 268 ft | 36 kts | 316° |
| 2026-05-05 17:56 | 50.86869 | 7.14486 | 261 ft | 21 kts | 284° |
| 2026-05-05 17:56 | 50.86886 | 7.14334 | 258 ft | 13 kts | 279° |
| 2026-05-05 17:56 | 50.86901 | 7.14192 | 255 ft | 13 kts | 279° |
| 2026-05-05 17:56 | 50.86934 | 7.14068 | 254 ft | 13 kts | 304° |
| 2026-05-05 17:57 | 50.87012 | 7.13950 | 246 ft | 18 kts | 317° |
| 2026-05-05 17:57 | 50.87104 | 7.13815 | 242 ft | 18 kts | 317° |
| 2026-05-05 17:57 | 50.87196 | 7.13684 | 238 ft | 18 kts | 317° |
| 2026-05-05 17:57 | 50.87285 | 7.13554 | 235 ft | 17 kts | 317° |
| 2026-05-05 17:58 | 50.87373 | 7.13427 | 232 ft | 16 kts | 317° |
| 2026-05-05 17:58 | 50.87446 | 7.13321 | 233 ft | 12 kts | 317° |
| 2026-05-05 17:58 | 50.87503 | 7.13238 | 233 ft | 10 kts | 317° |
| 2026-05-05 17:58 | 50.87551 | 7.13169 | 233 ft | 10 kts | 317° |
| 2026-05-05 17:59 | 50.87608 | 7.13087 | 233 ft | 12 kts | 317° |
| 2026-05-05 17:59 | 50.87678 | 7.12985 | 233 ft | 15 kts | 317° |
| 2026-05-05 17:59 | 50.87759 | 7.12867 | 232 ft | 14 kts | 318° |
| 2026-05-05 17:59 | 50.87787 | 7.12753 | 232 ft | 10 kts | 258° |
| 2026-05-05 18:00 | 50.87794 | 7.12664 | 234 ft | 8 kts | 301° |
| 2026-05-05 18:00 | 50.87840 | 7.12617 | 232 ft | 8 kts | 342° |
| 2026-05-05 18:00 | 50.87897 | 7.12613 | 232 ft | 7 kts | 4° |
| 2026-05-05 18:00 | 50.87932 | 7.12593 | 233 ft | 6 kts | 325° |
| 2026-05-05 18:01 | 50.87968 | 7.12541 | 232 ft | 8 kts | 317° |
| 2026-05-05 18:01 | 50.88017 | 7.12472 | 232 ft | 10 kts | 317° |
| 2026-05-05 18:01 | 50.88060 | 7.12405 | 232 ft | 7 kts | 310° |
| 2026-05-05 18:01 | 50.88082 | 7.12360 | 232 ft | 4 kts | 306° |
| 2026-05-05 18:02 | 50.88097 | 7.12311 | 232 ft | 6 kts | 283° |
| 2026-05-05 18:02 | 50.88103 | 7.12273 | 232 ft | 2 kts | 287° |
| 2026-05-05 18:02 | 50.88101 | 7.12244 | 232 ft | 3 kts | 248° |
| 2026-05-05 18:02 | 50.88081 | 7.12217 | 234 ft | 2 kts | 216° |
| 2026-05-05 18:03 | 50.88072 | 7.12207 | 232 ft | 3 kts | 216° |
| 2026-05-05 18:03 | 50.88067 | 7.12201 | 232 ft | 1 kts | 216° |
| 2026-05-05 18:03 | 50.88057 | 7.12190 | 232 ft | 1 kts | 216° |
| 2026-05-05 18:03 | 50.88056 | 7.12189 | 232 ft | 0 kts | 216° |